createdAt,value
2023-04-01T00:01:10.092Z,10.07
2023-04-01T00:03:45.485Z,8.77
2023-04-01T00:06:26.692Z,9.63
2023-04-01T00:08:58.852Z,9.38
2023-04-01T00:11:31.562Z,8.23
2023-04-01T00:14:04.300Z,7.88
2023-04-01T00:16:53.992Z,7.68
2023-04-01T00:19:28.856Z,9.23
2023-04-01T00:22:01.194Z,7.63
2023-04-01T00:24:33.378Z,12.70
2023-04-01T00:27:05.956Z,7.88
2023-04-01T00:29:38.172Z,10.57
2023-04-01T00:32:10.659Z,13.90
2023-04-01T00:34:46.020Z,7.53
2023-04-01T00:37:18.480Z,9.02
2023-04-01T00:39:50.334Z,6.72
2023-04-01T00:42:23.176Z,10.48
2023-04-01T00:44:56.832Z,8.65
2023-04-01T00:47:31.007Z,12.07
2023-04-01T00:50:05.776Z,8.45
2023-04-01T00:52:37.999Z,10.02
2023-04-01T00:55:12.819Z,8.70
2023-04-01T00:57:50.461Z,10.60
2023-04-01T01:00:25.058Z,8.43
2023-04-01T01:02:57.372Z,11.20
2023-04-01T01:08:27.783Z,9.70
2023-04-01T01:10:59.580Z,12.48
2023-04-01T01:13:37.022Z,10.63
2023-04-01T01:16:14.851Z,9.98
2023-04-01T01:19:23.597Z,12.15
2023-04-01T01:22:41.875Z,11.13
2023-04-01T01:25:30.665Z,12.38
2023-04-01T01:28:41.177Z,8.75
2023-04-01T01:34:57.567Z,10.70
2023-04-01T01:40:38.776Z,9.00
2023-04-01T01:43:16.038Z,11.30
2023-04-01T01:45:51.702Z,10.48
2023-04-01T01:48:24.363Z,11.70
2023-04-01T01:50:57.158Z,9.70
2023-04-01T01:53:31.975Z,7.30
2023-04-01T01:56:03.713Z,12.02
2023-04-01T01:58:42.115Z,8.95
2023-04-01T02:04:56.437Z,6.55
2023-04-01T02:07:34.996Z,11.15
2023-04-01T02:10:11.023Z,10.43
2023-04-01T02:13:16.859Z,9.05
2023-04-01T02:15:54.486Z,9.57
2023-04-01T02:18:27.921Z,10.77
2023-04-01T02:21:03.571Z,10.85
2023-04-01T02:23:38.034Z,12.85
2023-04-01T02:26:16.296Z,7.07
2023-04-01T02:28:50.820Z,10.98
2023-04-01T02:31:23.581Z,9.98
2023-04-01T02:33:56.560Z,8.32
2023-04-01T02:36:29.248Z,12.52
2023-04-01T02:39:05.614Z,10.25
2023-04-01T02:41:43.474Z,11.10
2023-04-01T02:44:58.778Z,14.90
2023-04-01T02:47:31.397Z,10.27
2023-04-01T02:50:32.529Z,11.63
2023-04-01T02:53:05.259Z,11.43
2023-04-01T02:55:37.962Z,10.25
2023-04-01T02:58:17.399Z,8.57
2023-04-01T03:00:50.802Z,12.43
2023-04-01T03:03:23.426Z,9.15
2023-04-01T03:05:56.797Z,9.20
2023-04-01T03:08:29.137Z,9.55
2023-04-01T03:11:00.856Z,11.30
2023-04-01T03:13:35.557Z,9.20
2023-04-01T03:16:08.902Z,11.95
2023-04-01T03:18:45.777Z,8.57
2023-04-01T03:21:28.322Z,11.77
2023-04-01T03:24:04.123Z,12.52
2023-04-01T03:26:36.763Z,7.90
2023-04-01T03:29:11.634Z,7.05
2023-04-01T03:31:43.361Z,9.50
2023-04-01T03:34:15.592Z,9.70
2023-04-01T03:36:47.876Z,13.52
2023-04-01T03:39:21.418Z,10.80
2023-04-01T03:41:53.255Z,7.43
2023-04-01T03:44:28.093Z,9.73
2023-04-01T03:46:59.895Z,11.57
2023-04-01T03:49:33.554Z,10.43
2023-04-01T03:52:06.473Z,10.55
2023-04-01T03:54:38.944Z,8.57
2023-04-01T03:57:10.937Z,9.38
2023-04-01T03:59:46.007Z,11.60
2023-04-01T04:02:17.793Z,10.60
2023-04-01T04:04:50.584Z,11.93
2023-04-01T04:07:22.354Z,11.50
2023-04-01T04:09:54.380Z,15.20
2023-04-01T04:12:26.145Z,14.32
2023-04-01T04:15:00.872Z,12.73
2023-04-01T04:17:32.701Z,9.48
2023-04-01T04:20:05.136Z,11.30
2023-04-01T04:22:36.924Z,16.02
2023-04-01T04:25:09.989Z,16.00
2023-04-01T04:27:41.859Z,15.93
2023-04-01T04:30:17.659Z,13.55
2023-04-01T04:32:49.531Z,12.50
2023-04-01T04:35:21.678Z,14.70
2023-04-01T04:37:53.378Z,13.45
2023-04-01T04:40:26.296Z,13.85
2023-04-01T04:43:00.017Z,17.00
2023-04-01T04:45:36.143Z,13.98
2023-04-01T04:48:09.762Z,12.23
2023-04-01T04:50:47.118Z,14.23
2023-04-01T04:53:22.118Z,17.80
2023-04-01T04:55:56.100Z,14.77
2023-04-01T04:58:33.304Z,16.50
2023-04-01T05:01:15.103Z,20.27
2023-04-01T05:03:49.600Z,17.67
2023-04-01T05:06:23.583Z,16.83
2023-04-01T05:08:57.932Z,18.95
2023-04-01T05:11:31.554Z,16.85
2023-04-01T05:14:03.632Z,19.00
2023-04-01T05:16:38.653Z,19.92
2023-04-01T05:19:18.115Z,20.42
2023-04-01T05:21:54.256Z,22.45
2023-04-01T05:24:28.192Z,15.48
2023-04-01T05:27:00.800Z,24.58
2023-04-01T05:29:32.535Z,20.27
2023-04-01T05:32:07.659Z,20.20
2023-04-01T05:34:39.494Z,17.85
2023-04-01T05:37:11.945Z,16.38
2023-04-01T05:39:44.223Z,17.83
2023-04-01T05:42:17.210Z,18.50
2023-04-01T05:44:48.961Z,17.88
2023-04-01T05:47:24.502Z,17.88
2023-04-01T05:49:56.754Z,16.65
2023-04-01T05:52:29.014Z,20.80
2023-04-01T05:55:01.613Z,20.08
2023-04-01T05:57:34.300Z,18.80
2023-04-01T06:00:07.176Z,18.88
2023-04-01T06:02:43.372Z,17.42
2023-04-01T06:05:21.313Z,19.63
2023-04-01T06:07:59.744Z,19.75
2023-04-01T06:10:55.491Z,14.63
2023-04-01T06:13:40.637Z,16.90
2023-04-01T06:16:19.518Z,20.48
2023-04-01T06:19:24.017Z,21.25
2023-04-01T06:22:24.912Z,21.27
2023-04-01T06:25:18.254Z,22.30
2023-04-01T06:28:11.939Z,17.45
2023-04-01T06:30:49.133Z,23.55
2023-04-01T06:33:42.911Z,18.27
2023-04-01T06:36:30.085Z,19.50
2023-04-01T06:39:29.721Z,16.25
2023-04-01T06:42:28.837Z,18.80
2023-04-01T06:45:14.777Z,16.50
2023-04-01T06:47:57.352Z,22.25
2023-04-01T06:50:34.975Z,16.50
2023-04-01T06:53:14.304Z,22.35
2023-04-01T06:55:52.318Z,22.55
2023-04-01T06:58:27.507Z,19.50
2023-04-01T07:01:02.406Z,13.05
2023-04-01T07:03:38.885Z,19.60
2023-04-01T07:06:16.281Z,16.20
2023-04-01T07:08:50.076Z,21.25
2023-04-01T07:11:30.955Z,18.55
2023-04-01T07:14:07.936Z,18.42
2023-04-01T07:16:44.376Z,19.75
2023-04-01T07:19:25.719Z,19.38
2023-04-01T07:22:01.276Z,18.73
2023-04-01T07:24:38.235Z,17.58
2023-04-01T07:27:15.214Z,19.23
2023-04-01T07:29:47.635Z,17.55
2023-04-01T07:32:27.906Z,22.73
2023-04-01T07:35:33.531Z,21.92
2023-04-01T07:38:26.635Z,15.43
2023-04-01T07:41:12.226Z,16.75
2023-04-01T07:44:01.239Z,19.02
2023-04-01T07:46:51.848Z,12.38
2023-04-01T07:49:33.322Z,14.88
2023-04-01T07:52:11.057Z,21.13
2023-04-01T07:54:49.677Z,21.02
2023-04-01T07:57:25.269Z,14.02
2023-04-01T08:00:06.708Z,11.27
2023-04-01T08:02:52.640Z,13.90
2023-04-01T08:05:31.962Z,10.07
2023-04-01T08:08:14.151Z,14.27
2023-04-01T08:10:54.596Z,15.85
2023-04-01T08:13:36.594Z,9.95
2023-04-01T08:16:20.812Z,9.65
2023-04-01T08:19:03.110Z,10.70
2023-04-01T08:21:39.771Z,11.20
2023-04-01T08:24:22.829Z,13.75
2023-04-01T08:26:59.544Z,9.45
2023-04-01T08:29:43.376Z,8.55
2023-04-01T08:32:23.534Z,8.27
2023-04-01T08:35:02.925Z,9.75
2023-04-01T08:37:39.589Z,9.32
2023-04-01T08:40:33.191Z,6.50
2023-04-01T08:43:17.090Z,5.25
2023-04-01T08:46:01.360Z,2.92
2023-04-01T08:48:52.955Z,3.42
2023-04-01T08:51:57.450Z,5.30
2023-04-01T08:54:52.500Z,5.85
2023-04-01T08:57:39.200Z,9.02
2023-04-01T09:00:26.649Z,10.60
2023-04-01T09:03:30.890Z,10.95
2023-04-01T09:06:32.721Z,13.05
2023-04-01T09:09:23.816Z,14.55
2023-04-01T09:12:17.520Z,17.20
2023-04-01T09:15:22.821Z,17.15
2023-04-01T09:18:28.722Z,20.08
2023-04-01T09:21:29.079Z,22.90
2023-04-01T09:24:39.681Z,26.08
2023-04-01T09:27:24.960Z,22.83
2023-04-01T09:30:25.363Z,23.10
2023-04-01T09:33:21.457Z,24.63
2023-04-01T09:36:03.735Z,23.77
2023-04-01T09:38:49.202Z,20.67
2023-04-01T09:41:32.908Z,21.55
2023-04-01T09:44:13.200Z,19.17
2023-04-01T09:47:05.583Z,20.33
2023-04-01T09:50:01.538Z,19.70
2023-04-01T09:52:46.556Z,26.05
2023-04-01T09:55:53.672Z,25.75
2023-04-01T09:58:59.421Z,27.77
2023-04-01T10:02:03.986Z,24.17
2023-04-01T10:05:09.533Z,25.67
2023-04-01T10:08:21.561Z,26.83
2023-04-01T10:11:13.186Z,30.40
2023-04-01T10:14:17.377Z,28.63
2023-04-01T10:17:17.793Z,31.25
2023-04-01T10:20:16.214Z,32.38
2023-04-01T10:23:18.072Z,25.45
2023-04-01T10:30:29.979Z,31.63
2023-04-01T10:33:38.437Z,27.42
2023-04-01T10:36:24.830Z,25.95
2023-04-01T10:39:20.662Z,27.98
2023-04-01T10:42:19.228Z,28.17
2023-04-01T10:45:06.067Z,23.17
2023-04-01T10:48:06.855Z,24.25
2023-04-01T10:51:08.481Z,24.60
2023-04-01T10:53:51.662Z,21.88
2023-04-01T10:56:38.496Z,28.42
2023-04-01T10:59:44.053Z,25.80
2023-04-01T11:02:47.543Z,25.52
2023-04-01T11:05:46.182Z,24.40
2023-04-01T11:08:29.766Z,23.10
2023-04-01T11:11:27.876Z,23.75
2023-04-01T11:14:31.903Z,22.30
2023-04-01T11:17:29.985Z,28.42
2023-04-01T11:20:21.776Z,27.75
2023-04-01T11:23:14.159Z,24.92
2023-04-01T11:26:03.264Z,23.77
2023-04-01T11:29:07.857Z,22.88
2023-04-01T11:32:10.671Z,24.77
2023-04-01T11:35:00.547Z,20.63
2023-04-01T11:37:51.927Z,19.77
2023-04-01T11:40:39.582Z,19.95
2023-04-01T11:43:32.187Z,17.90
2023-04-01T11:46:15.212Z,19.33
2023-04-01T11:49:01.456Z,19.90
2023-04-01T11:51:58.771Z,14.18
2023-04-01T11:54:53.614Z,15.90
2023-04-01T11:57:46.895Z,20.45
2023-04-01T12:00:46.145Z,15.13
2023-04-01T12:03:42.340Z,14.93
2023-04-01T12:06:23.704Z,10.98
2023-04-01T12:09:06.671Z,12.32
2023-04-01T12:11:46.908Z,19.02
2023-04-01T12:14:29.229Z,21.70
2023-04-01T12:17:15.089Z,25.58
2023-04-01T12:20:01.182Z,28.67
2023-04-01T12:22:48.227Z,23.98
2023-04-01T12:25:37.527Z,22.48
2023-04-01T12:28:21.778Z,27.42
2023-04-01T12:31:07.838Z,22.50
2023-04-01T12:34:01.337Z,22.40
2023-04-01T12:36:57.832Z,19.02
2023-04-01T12:39:34.740Z,21.08
2023-04-01T12:42:22.478Z,17.75
2023-04-01T12:45:09.470Z,13.73
2023-04-01T12:48:09.820Z,15.45
2023-04-01T12:51:05.466Z,14.88
2023-04-01T12:54:06.509Z,18.20
2023-04-01T12:56:53.042Z,24.15
2023-04-01T12:59:37.350Z,28.63
2023-04-01T13:02:24.377Z,29.30
2023-04-01T13:05:21.270Z,31.27
2023-04-01T13:08:10.310Z,32.42
2023-04-01T13:11:04.829Z,29.98
2023-04-01T13:14:21.557Z,32.75
2023-04-01T13:17:07.599Z,32.72
2023-04-01T13:20:02.011Z,32.33
2023-04-01T13:22:53.519Z,31.42
2023-04-01T13:25:31.899Z,30.05
2023-04-01T13:28:17.795Z,32.22
2023-04-01T13:30:59.929Z,31.10
2023-04-01T13:33:38.072Z,29.88
2023-04-01T13:36:21.696Z,26.10
2023-04-01T13:39:08.541Z,30.05
2023-04-01T13:41:56.311Z,26.58
2023-04-01T13:44:39.608Z,22.40
2023-04-01T13:47:46.836Z,26.20
2023-04-01T13:50:51.538Z,23.65
2023-04-01T13:53:45.168Z,19.75
2023-04-01T13:56:38.150Z,20.67
2023-04-01T13:59:27.512Z,16.85
2023-04-01T14:02:24.700Z,18.35
2023-04-01T14:05:22.373Z,20.08
2023-04-01T14:08:14.508Z,18.58
2023-04-01T14:10:55.638Z,19.48
2023-04-01T14:13:36.523Z,15.68
2023-04-01T14:16:37.936Z,16.45
2023-04-01T14:19:29.368Z,14.95
2023-04-01T14:22:14.928Z,15.43
2023-04-01T14:24:57.931Z,13.35
2023-04-01T14:27:46.367Z,14.38
2023-04-01T14:30:40.846Z,12.50
2023-04-01T14:33:38.999Z,24.58
2023-04-01T14:36:53.309Z,16.25
2023-04-01T14:39:51.768Z,16.30
2023-04-01T14:42:43.009Z,15.45
2023-04-01T14:45:50.356Z,13.10
2023-04-01T14:48:31.731Z,12.77
2023-04-01T14:51:23.130Z,13.43
2023-04-01T14:54:24.088Z,14.23
2023-04-01T14:57:16.528Z,13.50
2023-04-01T14:59:54.208Z,15.98
2023-04-01T15:02:51.785Z,12.38
2023-04-01T15:05:37.798Z,14.43
2023-04-01T15:08:23.527Z,13.60
2023-04-01T15:11:16.961Z,12.48
2023-04-01T15:14:19.610Z,14.57
2023-04-01T15:17:11.536Z,14.73
2023-04-01T15:19:58.261Z,15.55
2023-04-01T15:22:49.171Z,18.35
2023-04-01T15:25:35.761Z,15.13
2023-04-01T15:28:18.359Z,10.98
2023-04-01T15:30:58.838Z,13.32
2023-04-01T15:33:58.700Z,16.85
2023-04-01T15:36:45.246Z,13.13
2023-04-01T15:39:23.491Z,13.85
2023-04-01T15:42:25.016Z,15.43
2023-04-01T15:45:10.944Z,13.82
2023-04-01T15:47:47.855Z,15.68
2023-04-01T15:50:56.397Z,17.52
2023-04-01T15:54:00.611Z,14.00
2023-04-01T15:56:49.812Z,16.17
2023-04-01T15:59:49.490Z,16.02
2023-04-01T16:02:34.747Z,15.27
2023-04-01T16:05:25.089Z,14.68
2023-04-01T16:08:13.930Z,16.42
2023-04-01T16:11:03.888Z,17.08
2023-04-01T16:13:53.171Z,15.27
2023-04-01T16:16:37.005Z,14.95
2023-04-01T16:19:37.307Z,12.02
2023-04-01T16:22:14.766Z,12.80
2023-04-01T16:24:55.485Z,11.57
2023-04-01T16:27:38.591Z,12.65
2023-04-01T16:30:32.393Z,15.98
2023-04-01T16:33:14.730Z,19.13
2023-04-01T16:35:52.044Z,13.23
2023-04-01T16:38:29.713Z,14.52
2023-04-01T16:41:16.602Z,11.73
2023-04-01T16:43:55.845Z,10.88
2023-04-01T16:46:38.886Z,14.73
2023-04-01T16:49:36.808Z,11.23
2023-04-01T16:52:22.214Z,10.38
2023-04-01T16:55:02.065Z,11.10
2023-04-01T16:57:52.033Z,9.85
2023-04-01T17:00:32.231Z,12.75
2023-04-01T17:03:21.748Z,9.32
2023-04-01T17:06:07.988Z,8.20
2023-04-01T17:09:08.953Z,11.63
2023-04-01T17:11:48.450Z,14.00
2023-04-01T17:14:32.757Z,10.15
2023-04-01T17:17:27.259Z,15.90
2023-04-01T17:20:18.171Z,11.35
2023-04-01T17:23:00.357Z,11.23
2023-04-01T17:25:57.680Z,12.80
2023-04-01T17:28:41.482Z,12.93
2023-04-01T17:31:26.695Z,13.93
2023-04-01T17:34:11.571Z,13.60
2023-04-01T17:37:02.477Z,15.15
2023-04-01T17:39:54.012Z,14.70
2023-04-01T17:42:38.132Z,12.45
2023-04-01T17:45:22.136Z,13.73
2023-04-01T17:48:15.230Z,14.05
2023-04-01T17:51:03.060Z,14.10
2023-04-01T17:53:49.492Z,12.52
2023-04-01T17:56:38.891Z,14.02
2023-04-01T17:59:32.452Z,12.38
2023-04-01T18:02:20.367Z,15.55
2023-04-01T18:05:19.674Z,12.88
2023-04-01T18:08:07.336Z,14.30
2023-04-01T18:10:46.393Z,15.73
2023-04-01T18:13:51.479Z,12.55
2023-04-01T18:16:37.135Z,13.77
2023-04-01T18:19:21.375Z,14.38
2023-04-01T18:22:04.022Z,16.35
2023-04-01T18:24:41.405Z,13.18
2023-04-01T18:27:21.833Z,18.90
2023-04-01T18:29:57.954Z,12.65
2023-04-01T18:32:40.868Z,15.88
2023-04-01T18:35:33.632Z,15.45
2023-04-01T18:38:17.402Z,16.52
2023-04-01T18:40:59.040Z,14.90
2023-04-01T18:43:39.479Z,11.45
2023-04-01T18:46:26.090Z,14.45
2023-04-01T18:49:10.874Z,15.88
2023-04-01T18:51:50.410Z,13.70
2023-04-01T18:54:31.930Z,19.40
2023-04-01T18:57:09.222Z,15.45
2023-04-01T18:59:48.161Z,15.60
2023-04-01T19:02:33.019Z,17.35
2023-04-01T19:05:11.332Z,18.38
2023-04-01T19:07:51.570Z,14.55
2023-04-01T19:10:45.219Z,17.30
2023-04-01T19:13:31.055Z,18.88
2023-04-01T19:16:20.388Z,19.02
2023-04-01T19:19:21.370Z,21.05
2023-04-01T19:22:01.173Z,21.15
2023-04-01T19:25:00.034Z,20.27
2023-04-01T19:27:42.167Z,22.63
2023-04-01T19:30:38.983Z,17.48
2023-04-01T19:33:26.889Z,18.50
2023-04-01T19:36:08.207Z,22.48
2023-04-01T19:38:44.054Z,20.95
2023-04-01T19:41:31.933Z,21.88
2023-04-01T19:44:27.690Z,18.08
2023-04-01T19:47:09.137Z,24.23
2023-04-01T19:49:55.317Z,25.40
2023-04-01T19:52:35.473Z,19.75
2023-04-01T19:55:24.918Z,23.80
2023-04-01T19:58:06.518Z,22.67
2023-04-01T20:00:47.733Z,24.13
2023-04-01T20:03:39.088Z,23.27
2023-04-01T20:06:27.689Z,22.75
2023-04-01T20:09:28.157Z,23.88
2023-04-01T20:12:05.256Z,21.98
2023-04-01T20:14:45.481Z,28.35
2023-04-01T20:17:26.423Z,32.03
2023-04-01T20:20:04.700Z,24.40
2023-04-01T20:23:03.271Z,28.20
2023-04-01T20:25:44.108Z,27.08
2023-04-01T20:28:25.110Z,28.60
2023-04-01T20:31:17.967Z,28.35
2023-04-01T20:34:41.551Z,29.85
2023-04-01T20:37:56.294Z,20.30
2023-04-01T20:40:46.590Z,25.55
2023-04-01T20:43:59.120Z,22.90
2023-04-01T20:46:39.672Z,22.25
2023-04-01T20:49:36.535Z,27.42
2023-04-01T20:52:26.873Z,21.88
2023-04-01T20:55:37.836Z,26.70
2023-04-01T20:58:26.574Z,22.98
2023-04-01T21:01:12.621Z,26.70
2023-04-01T21:03:53.980Z,27.13
2023-04-01T21:06:43.803Z,29.20
2023-04-01T21:09:45.666Z,24.80
2023-04-01T21:12:32.129Z,30.33
2023-04-01T21:15:25.421Z,27.75
2023-04-01T21:18:14.357Z,28.27
2023-04-01T21:21:08.135Z,25.67
2023-04-01T21:23:54.737Z,33.05
2023-04-01T21:26:44.895Z,27.65
2023-04-01T21:29:43.516Z,27.58
2023-04-01T21:32:33.742Z,23.77
2023-04-01T21:35:13.774Z,23.98
2023-04-01T21:38:11.595Z,24.63
2023-04-01T21:41:10.013Z,26.05
2023-04-01T21:43:58.060Z,28.55
2023-04-01T21:47:03.363Z,25.95
2023-04-01T21:50:08.691Z,24.73
2023-04-01T21:53:11.954Z,25.85
2023-04-01T21:56:15.264Z,22.77
2023-04-01T21:59:32.095Z,24.48
2023-04-01T22:02:45.765Z,26.50
2023-04-01T22:05:26.819Z,24.55
2023-04-01T22:08:13.622Z,20.02
2023-04-01T22:11:00.255Z,23.98
2023-04-01T22:13:40.802Z,21.33
2023-04-01T22:16:21.208Z,18.58
2023-04-01T22:19:00.672Z,22.05
2023-04-01T22:21:43.417Z,21.65
2023-04-01T22:24:22.658Z,17.70
2023-04-01T22:27:02.892Z,13.80
2023-04-01T22:29:42.953Z,14.35
2023-04-01T22:32:23.785Z,15.75
2023-04-01T22:35:02.061Z,18.55
2023-04-01T22:37:45.319Z,17.00
2023-04-01T22:40:30.216Z,13.52
2023-04-01T22:43:10.218Z,11.52
2023-04-01T22:46:10.638Z,12.10
2023-04-01T22:48:49.078Z,11.85
2023-04-01T22:51:28.754Z,12.35
2023-04-01T22:54:16.399Z,12.82
2023-04-01T22:56:54.628Z,12.10
2023-04-01T22:59:36.255Z,12.05
2023-04-01T23:02:15.276Z,9.43
2023-04-01T23:04:51.751Z,7.55
2023-04-01T23:07:36.961Z,10.07
2023-04-01T23:10:24.682Z,11.25
2023-04-01T23:13:01.319Z,11.93
2023-04-01T23:15:34.849Z,12.30
2023-04-01T23:18:19.300Z,13.18
2023-04-01T23:21:13.396Z,10.93
2023-04-01T23:24:02.644Z,12.38
2023-04-01T23:26:44.966Z,13.38
2023-04-01T23:29:20.162Z,9.40
2023-04-01T23:32:01.172Z,10.43
2023-04-01T23:34:35.621Z,9.98
2023-04-01T23:37:13.113Z,8.45
